Time;durP1;ratioP1;P1;durP2;ratioP2;P2;SDS_P1;SDS_P2;PMS_P1;PMS_P2;Temp;Humidity;BMP_temperature;BMP_pressure;BME280_temperature;BME280_humidity;BME280_pressure;Samples;Min_cycle;Max_cycle;Signal;HPM_P1;HPM_P2
2021/05/29 00:01:39;;;;;;;7.43;3.10;;;6.20;94.20;;;;;;5015191;28;20049;-69
2021/05/29 00:04:04;;;;;;;8.63;3.33;;;6.20;94.10;;;;;;5015344;28;20026;-69
2021/05/29 00:06:31;;;;;;;6.55;2.75;;;6.20;93.70;;;;;;5015109;28;20032;-69
2021/05/29 00:08:56;;;;;;;10.50;3.80;;;6.20;94.50;;;;;;5015306;28;20347;-69
2021/05/29 00:11:23;;;;;;;7.20;3.63;;;6.10;95.00;;;;;;5015318;28;20269;-69
2021/05/29 00:13:48;;;;;;;9.00;3.08;;;6.10;94.70;;;;;;5015137;28;20033;-69
2021/05/29 00:16:14;;;;;;;5.93;2.72;;;6.20;94.30;;;;;;5015342;28;20108;-69
2021/05/29 00:18:40;;;;;;;6.60;3.08;;;6.20;94.30;;;;;;5014922;28;20080;-69
2021/05/29 00:21:06;;;;;;;10.60;3.38;;;6.20;94.40;;;;;;5015269;28;20037;-69
2021/05/29 00:23:32;;;;;;;6.28;2.72;;;6.20;94.40;;;;;;5015072;28;20026;-69
2021/05/29 00:25:58;;;;;;;7.65;3.03;;;6.20;93.80;;;;;;5015112;28;20029;-69
2021/05/29 00:28:24;;;;;;;10.50;3.17;;;6.30;93.50;;;;;;5014728;28;20516;-69
2021/05/29 00:30:50;;;;;;;8.70;4.18;;;6.20;94.00;;;;;;5014859;28;20025;-69
2021/05/29 00:33:15;;;;;;;6.53;3.28;;;6.10;94.60;;;;;;5014677;28;20038;-69
2021/05/29 00:35:41;;;;;;;11.90;3.13;;;6.00;95.50;;;;;;5014976;28;20080;-69
2021/05/29 00:38:07;;;;;;;7.25;3.10;;;5.90;96.70;;;;;;5014310;28;20104;-69
2021/05/29 00:40:34;;;;;;;10.35;3.47;;;5.80;97.50;;;;;;5014773;28;20044;-69
2021/05/29 00:43:00;;;;;;;8.90;3.17;;;5.80;97.40;;;;;;5014455;28;20092;-69
2021/05/29 00:45:27;;;;;;;6.60;3.75;;;5.80;96.70;;;;;;4996830;28;20022;-69
2021/05/29 00:47:53;;;;;;;6.63;2.97;;;5.70;97.30;;;;;;5014583;28;20396;-69
2021/05/29 00:50:19;;;;;;;8.20;3.17;;;5.60;98.20;;;;;;5014767;28;20030;-69
2021/05/29 00:52:46;;;;;;;5.55;3.03;;;5.50;99.60;;;;;;5014573;28;20044;-69
2021/05/29 00:55:15;;;;;;;9.68;3.28;;;5.40;99.50;;;;;;5014447;28;20037;-69
2021/05/29 00:57:45;;;;;;;8.32;3.47;;;5.40;99.70;;;;;;5013325;28;20057;-69
2021/05/29 01:00:13;;;;;;;7.53;3.47;;;5.40;99.90;;;;;;5014341;28;20464;-69
2021/05/29 01:02:39;;;;;;;8.98;3.70;;;5.40;99.30;;;;;;5014281;28;20041;-69
2021/05/29 01:05:07;;;;;;;6.50;2.90;;;5.50;98.90;;;;;;4996642;28;20113;-69
2021/05/29 01:07:33;;;;;;;10.25;3.60;;;5.50;99.00;;;;;;5014166;28;20029;-68
2021/05/29 01:10:00;;;;;;;7.80;3.10;;;5.50;98.10;;;;;;5014517;28;20473;-69
2021/05/29 01:12:26;;;;;;;6.05;3.13;;;5.50;97.90;;;;;;5013802;28;20671;-69
2021/05/29 01:17:17;;;;;;;10.50;3.47;;;5.40;98.60;;;;;;5013934;28;20072;-69
2021/05/29 01:19:43;;;;;;;8.15;3.30;;;5.30;99.30;;;;;;5014094;28;20104;-69
2021/05/29 01:22:10;;;;;;;9.77;3.58;;;5.20;99.90;;;;;;5013719;28;20042;-69
2021/05/29 01:24:37;;;;;;;8.48;3.58;;;5.10;99.90;;;;;;4996163;28;20033;-69
2021/05/29 01:27:04;;;;;;;8.38;3.42;;;5.00;99.90;;;;;;5013686;28;20104;-69
2021/05/29 01:29:30;;;;;;;10.15;3.67;;;4.80;99.90;;;;;;5013685;28;20021;-69
2021/05/29 01:32:04;;;;;;;8.18;3.42;;;4.80;99.90;;;;;;5013628;28;20094;-68
2021/05/29 01:34:32;;;;;;;8.07;3.17;;;4.80;99.90;;;;;;5013619;28;20018;-69
2021/05/29 01:37:01;;;;;;;10.88;3.08;;;4.80;99.90;;;;;;5013224;28;20046;-69
2021/05/29 01:39:26;;;;;;;8.95;2.92;;;4.80;99.90;;;;;;5013748;28;20054;-69
2021/05/29 01:41:52;;;;;;;9.20;2.33;;;4.80;99.90;;;;;;5013671;28;20070;-69
2021/05/29 01:44:19;;;;;;;9.63;3.70;;;4.80;99.90;;;;;;5013788;28;20036;-69
2021/05/29 01:46:45;;;;;;;15.88;3.10;;;4.90;99.90;;;;;;5013593;28;20034;-69
2021/05/29 01:49:11;;;;;;;7.40;3.00;;;4.90;99.90;;;;;;5013730;28;20452;-69
2021/05/29 01:51:36;;;;;;;12.57;2.67;;;4.90;99.90;;;;;;5013298;28;20564;-69
2021/05/29 01:54:03;;;;;;;4.72;2.58;;;5.00;99.90;;;;;;5013401;28;20022;-69
2021/05/29 01:56:29;;;;;;;10.45;3.55;;;5.10;99.90;;;;;;5013425;28;20112;-69
2021/05/29 01:58:55;;;;;;;8.90;2.40;;;5.10;99.90;;;;;;5013506;28;20133;-69
2021/05/29 02:01:21;;;;;;;7.47;2.40;;;5.10;99.90;;;;;;5013445;28;20094;-69
2021/05/29 02:03:46;;;;;;;4.47;2.67;;;5.00;99.90;;;;;;5012956;28;20087;-69
2021/05/29 02:06:16;;;;;;;5.68;2.35;;;5.00;99.90;;;;;;5013121;28;20508;-68
2021/05/29 02:08:42;;;;;;;8.13;3.47;;;4.90;99.90;;;;;;5012864;28;20362;-69
2021/05/29 02:11:08;;;;;;;6.97;2.95;;;4.80;99.90;;;;;;5013006;28;20022;-69
2021/05/29 02:13:37;;;;;;;10.00;3.10;;;4.70;99.90;;;;;;5013000;28;20029;-69
2021/05/29 02:16:04;;;;;;;10.38;3.08;;;4.70;99.90;;;;;;5013237;28;20022;-69
2021/05/29 02:18:30;;;;;;;9.45;2.85;;;4.70;99.90;;;;;;5013074;28;20049;-69
2021/05/29 02:21:03;;;;;;;6.47;2.88;;;4.80;99.90;;;;;;5012867;28;20521;-68
2021/05/29 02:23:31;;;;;;;5.85;2.55;;;4.90;99.90;;;;;;5012622;28;20118;-69
2021/05/29 02:26:03;;;;;;;11.82;3.35;;;4.90;99.90;;;;;;5012755;28;20125;-69
2021/05/29 02:28:33;;;;;;;7.32;2.83;;;4.90;99.90;;;;;;4995019;28;20022;-69
2021/05/29 02:30:58;;;;;;;6.45;2.53;;;5.00;99.90;;;;;;5012720;28;20450;-69
2021/05/29 02:33:25;;;;;;;11.60;3.60;;;5.10;99.90;;;;;;5012598;28;20108;-69
2021/05/29 02:35:51;;;;;;;4.88;2.28;;;5.40;99.90;;;;;;5012654;28;20389;-69
2021/05/29 02:38:17;;;;;;;7.53;2.28;;;5.50;99.90;;;;;;5012446;28;20037;-69
2021/05/29 02:40:43;;;;;;;7.03;2.10;;;5.60;99.90;;;;;;5012563;28;20026;-69
2021/05/29 02:43:09;;;;;;;5.38;1.73;;;5.70;97.90;;;;;;5012334;28;20440;-69
2021/05/29 02:45:35;;;;;;;6.47;2.10;;;5.90;94.30;;;;;;5012346;28;20022;-69
2021/05/29 02:48:02;;;;;;;9.63;2.38;;;6.20;93.80;;;;;;5012274;28;20026;-69
2021/05/29 02:50:28;;;;;;;7.10;2.05;;;6.30;92.30;;;;;;5012290;28;20029;-69
2021/05/29 02:52:54;;;;;;;4.00;1.65;;;6.40;90.60;;;;;;5012284;28;20030;-69
2021/05/29 02:55:23;;;;;;;6.20;1.85;;;6.50;89.70;;;;;;5012353;28;20032;-69
2021/05/29 02:57:57;;;;;;;11.48;2.08;;;6.70;85.50;;;;;;5012268;28;20386;-69
2021/05/29 03:00:28;;;;;;;6.40;2.92;;;6.80;84.60;;;;;;5012300;28;20525;-69
2021/05/29 03:02:54;;;;;;;6.13;1.73;;;7.00;81.80;;;;;;5012080;28;20045;-69
2021/05/29 03:05:21;;;;;;;11.30;1.98;;;7.20;76.70;;;;;;5012150;28;20026;-69
2021/05/29 03:07:48;;;;;;;6.50;1.48;;;7.40;76.60;;;;;;5011924;28;20117;-69
2021/05/29 03:10:15;;;;;;;4.55;1.35;;;7.50;72.90;;;;;;5012191;28;20022;-69
2021/05/29 03:12:41;;;;;;;3.03;1.00;;;7.70;72.30;;;;;;5011909;28;20071;-69
2021/05/29 03:15:19;;;;;;;6.22;1.05;;;7.80;71.20;;;;;;5012052;28;20026;-69
2021/05/29 03:17:46;;;;;;;3.90;1.23;;;7.90;69.90;;;;;;5011805;28;20064;-69
2021/05/29 03:20:15;;;;;;;9.30;1.40;;;7.90;69.70;;;;;;5016029;28;20033;-69
2021/05/29 03:22:41;;;;;;;3.55;1.60;;;8.10;67.80;;;;;;5000710;28;20037;-69
2021/05/29 03:25:07;;;;;;;3.17;1.35;;;8.40;67.30;;;;;;5018533;28;20022;-69
2021/05/29 03:27:34;;;;;;;5.80;1.75;;;8.50;66.50;;;;;;5018566;28;20389;-69
2021/05/29 03:30:00;;;;;;;6.03;1.38;;;8.70;66.50;;;;;;5018782;28;20044;-69
2021/05/29 03:32:26;;;;;;;7.18;1.50;;;8.70;65.70;;;;;;5018476;28;20076;-69
2021/05/29 03:34:51;;;;;;;9.45;1.40;;;8.80;65.40;;;;;;5018533;28;20369;-69
2021/05/29 03:37:17;;;;;;;4.00;1.58;;;9.00;65.10;;;;;;5018083;28;20045;-69
2021/05/29 03:39:43;;;;;;;3.05;1.58;;;9.30;64.70;;;;;;5018473;28;20480;-69
2021/05/29 03:42:09;;;;;;;4.93;1.50;;;9.50;64.00;;;;;;5018559;28;20033;-69
2021/05/29 03:44:35;;;;;;;5.03;1.38;;;9.90;63.30;;;;;;5018184;28;20092;-69
2021/05/29 03:47:01;;;;;;;8.52;1.50;;;10.30;61.80;;;;;;5018277;28;20030;-69
2021/05/29 03:49:26;;;;;;;5.60;1.35;;;10.70;60.00;;;;;;5018237;28;20037;-69
2021/05/29 03:51:52;;;;;;;3.78;1.25;;;11.10;59.90;;;;;;5000588;28;20028;-69
2021/05/29 03:54:18;;;;;;;4.03;1.15;;;11.50;58.80;;;;;;5018210;28;20022;-69
2021/05/29 03:56:44;;;;;;;6.72;1.20;;;11.70;58.10;;;;;;5018366;28;20075;-69
2021/05/29 03:59:14;;;;;;;2.95;1.10;;;12.00;57.50;;;;;;5018395;28;20378;-69
2021/05/29 04:01:41;;;;;;;4.03;1.17;;;12.40;56.90;;;;;;5018358;28;20038;-69
2021/05/29 04:04:10;;;;;;;2.58;1.10;;;12.70;56.60;;;;;;5018393;28;20029;-69
2021/05/29 04:06:37;;;;;;;5.50;1.40;;;13.00;55.90;;;;;;5018382;28;20053;-69
2021/05/29 04:09:05;;;;;;;2.85;1.13;;;13.30;55.00;;;;;;5000845;28;20100;-69
2021/05/29 04:11:31;;;;;;;4.25;1.17;;;13.60;55.00;;;;;;5017975;28;20037;-69
2021/05/29 04:13:57;;;;;;;5.60;1.23;;;13.90;54.10;;;;;;5018258;28;20490;-69
2021/05/29 04:16:23;;;;;;;4.55;1.10;;;14.00;53.10;;;;;;5018090;28;20025;-69
2021/05/29 04:18:49;;;;;;;3.17;1.10;;;14.20;52.90;;;;;;5017762;28;20028;-69
2021/05/29 04:21:15;;;;;;;2.55;0.90;;;14.30;52.20;;;;;;5018322;28;20030;-70
2021/05/29 04:23:41;;;;;;;2.60;0.90;;;14.50;52.10;;;;;;5018112;28;20498;-69
2021/05/29 04:26:08;;;;;;;3.47;0.88;;;14.50;51.10;;;;;;5017961;28;20028;-69
2021/05/29 04:28:35;;;;;;;1.42;0.70;;;14.70;50.60;;;;;;5017947;28;20026;-69
2021/05/29 04:31:01;;;;;;;3.85;0.95;;;14.80;50.10;;;;;;5016814;28;20025;-69
2021/05/29 04:33:27;;;;;;;3.08;0.80;;;14.80;50.10;;;;;;5014891;28;20036;-70
2021/05/29 04:35:53;;;;;;;2.95;0.60;;;14.90;50.50;;;;;;5014736;28;20022;-70
2021/05/29 04:38:19;;;;;;;2.78;0.82;;;14.80;50.20;;;;;;5014676;28;20084;-69
2021/05/29 04:40:45;;;;;;;3.13;1.08;;;14.60;50.30;;;;;;5014690;28;20497;-69
2021/05/29 04:43:11;;;;;;;5.32;0.80;;;14.70;49.40;;;;;;5014831;28;20038;-69
2021/05/29 04:45:36;;;;;;;2.40;0.80;;;14.80;49.90;;;;;;5014811;28;20485;-69
2021/05/29 04:48:03;;;;;;;1.88;0.70;;;14.60;49.90;;;;;;5014610;28;20084;-69
2021/05/29 04:50:29;;;;;;;1.33;0.70;;;14.60;50.30;;;;;;5014871;28;20022;-69
2021/05/29 04:52:55;;;;;;;1.48;0.70;;;14.90;50.50;;;;;;5014403;28;20029;-69
2021/05/29 04:55:22;;;;;;;2.05;0.70;;;15.10;49.60;;;;;;5014484;28;20029;-70
2021/05/29 04:57:47;;;;;;;2.90;0.80;;;15.30;49.20;;;;;;5014439;28;20026;-69
2021/05/29 05:00:16;;;;;;;1.85;0.60;;;15.00;49.30;;;;;;5014420;28;20022;-70
2021/05/29 05:02:42;;;;;;;3.47;0.70;;;15.00;49.70;;;;;;5013985;28;20038;-69
2021/05/29 05:05:09;;;;;;;1.42;0.73;;;15.40;49.80;;;;;;5014600;28;20021;-69
2021/05/29 05:07:36;;;;;;;1.75;0.60;;;15.60;48.30;;;;;;5014450;28;20034;-70
2021/05/29 05:10:03;;;;;;;2.97;0.73;;;15.90;48.80;;;;;;5014496;28;20433;-69
2021/05/29 05:12:29;;;;;;;1.45;0.70;;;16.20;48.70;;;;;;5014200;28;20033;-69
2021/05/29 05:14:54;;;;;;;2.72;0.85;;;16.30;48.60;;;;;;5014027;28;20025;-69
2021/05/29 05:17:20;;;;;;;2.08;0.65;;;16.40;48.80;;;;;;5014161;28;20335;-70
2021/05/29 05:19:46;;;;;;;1.38;0.40;;;16.50;47.50;;;;;;5014129;28;20516;-70
2021/05/29 05:22:11;;;;;;;1.27;0.40;;;16.50;47.20;;;;;;5013996;28;20489;-70
2021/05/29 05:24:37;;;;;;;2.95;0.47;;;16.10;47.00;;;;;;5013820;28;20026;-70
2021/05/29 05:27:03;;;;;;;1.52;0.40;;;16.00;46.90;;;;;;5013969;28;20076;-70
2021/05/29 05:29:29;;;;;;;1.38;0.35;;;15.60;46.10;;;;;;5013836;28;20053;-70
2021/05/29 05:31:55;;;;;;;2.85;0.43;;;15.40;47.30;;;;;;5013647;28;20054;-70
2021/05/29 05:34:21;;;;;;;0.70;0.40;;;15.30;47.80;;;;;;5014012;28;20053;-70
2021/05/29 05:36:46;;;;;;;3.42;0.57;;;15.30;48.10;;;;;;5013489;28;20080;-70
2021/05/29 05:39:15;;;;;;;1.55;0.50;;;14.90;48.60;;;;;;5013877;28;20029;-69
2021/05/29 05:41:41;;;;;;;6.07;0.60;;;14.60;49.90;;;;;;5013595;28;20029;-70
2021/05/29 05:44:08;;;;;;;4.97;0.50;;;14.80;48.90;;;;;;5013096;28;20029;-70
2021/05/29 05:46:34;;;;;;;1.23;0.40;;;15.20;48.70;;;;;;5013763;28;20096;-70
2021/05/29 05:49:00;;;;;;;1.00;0.55;;;15.50;47.80;;;;;;5013409;28;20029;-70
2021/05/29 05:51:26;;;;;;;2.15;0.40;;;15.70;46.50;;;;;;5013769;28;20227;-70
2021/05/29 05:53:53;;;;;;;2.60;0.50;;;15.70;45.60;;;;;;5013475;28;20397;-70
2021/05/29 05:56:25;;;;;;;2.42;0.40;;;16.00;46.10;;;;;;5013579;28;20022;-70
2021/05/29 05:58:56;;;;;;;1.95;0.50;;;15.80;46.20;;;;;;5013071;28;20034;-70
2021/05/29 06:01:22;;;;;;;1.15;0.40;;;15.60;46.10;;;;;;5013485;28;20033;-70
2021/05/29 06:03:48;;;;;;;1.02;0.45;;;15.70;46.00;;;;;;5013285;28;20030;-70
2021/05/29 06:06:13;;;;;;;2.92;0.50;;;15.60;45.20;;;;;;5013075;28;20022;-70
2021/05/29 06:08:39;;;;;;;1.65;0.40;;;15.80;45.50;;;;;;5012936;28;20105;-70
2021/05/29 06:11:05;;;;;;;0.47;0.32;;;15.90;45.10;;;;;;5013125;28;20022;-70
2021/05/29 06:18:03;;;;;;;0.95;0.38;;;15.80;44.80;;;;;;5013254;28;20026;-70
2021/05/29 06:19:38;;;;;;;1.67;0.68;;;15.80;45.70;;;;;;5013298;28;20160;-70
2021/05/29 06:21:57;;;;;;;1.23;0.40;;;15.70;46.00;;;;;;5010568;28;20275;-70
2021/05/29 06:24:23;;;;;;;0.75;0.40;;;15.50;44.90;;;;;;5012852;28;20065;-70
2021/05/29 06:26:50;;;;;;;0.98;0.50;;;15.70;46.10;;;;;;5012935;28;20033;-70
2021/05/29 06:29:37;;;;;;;0.40;0.30;;;15.70;45.80;;;;;;5012974;28;20026;-70
2021/05/29 06:32:03;;;;;;;1.58;0.43;;;15.40;45.80;;;;;;4995178;28;20470;-70
2021/05/29 06:34:29;;;;;;;0.57;0.30;;;15.30;45.70;;;;;;5012556;28;20057;-70
2021/05/29 06:36:54;;;;;;;2.75;0.50;;;15.30;45.70;;;;;;5012377;28;20081;-70
2021/05/29 06:39:22;;;;;;;0.70;0.40;;;15.30;46.10;;;;;;5012634;28;20548;-70
2021/05/29 06:41:48;;;;;;;2.10;0.50;;;15.50;46.10;;;;;;5012419;28;20083;-70
2021/05/29 06:44:13;;;;;;;1.10;0.40;;;15.30;45.80;;;;;;5012516;28;20134;-70
2021/05/29 06:46:40;;;;;;;2.17;0.60;;;15.20;45.40;;;;;;5012346;28;20061;-70
2021/05/29 06:49:06;;;;;;;4.28;0.40;;;15.30;45.20;;;;;;5012353;28;20612;-70
2021/05/29 06:51:50;;;;;;;1.58;0.40;;;15.50;45.20;;;;;;5012678;28;20105;-70
2021/05/29 06:59:32;;;;;;;2.42;0.70;;;15.30;44.00;;;;;;5012538;28;20500;-70
2021/05/29 07:01:58;;;;;;;1.52;0.40;;;15.20;44.60;;;;;;5012138;28;20034;-70
2021/05/29 07:04:25;;;;;;;2.33;0.50;;;15.10;44.00;;;;;;5012207;28;20516;-70
2021/05/29 07:06:51;;;;;;;0.93;0.50;;;14.80;44.10;;;;;;4994554;28;20026;-70
2021/05/29 07:09:18;;;;;;;1.60;0.40;;;14.80;44.90;;;;;;5012416;28;20488;-70
2021/05/29 07:11:44;;;;;;;0.40;0.32;;;14.90;44.60;;;;;;5012382;28;20034;-70
2021/05/29 07:14:09;;;;;;;2.33;0.52;;;14.70;44.30;;;;;;5012026;28;20389;-70
2021/05/29 07:16:36;;;;;;;4.60;1.15;;;14.50;44.90;;;;;;5012079;28;20037;-70
2021/05/29 07:19:02;;;;;;;2.25;0.40;;;14.40;44.60;;;;;;5011998;28;20017;-70
2021/05/29 07:21:28;;;;;;;1.67;0.40;;;14.20;45.30;;;;;;5011981;28;20366;-70
2021/05/29 07:23:54;;;;;;;1.73;0.50;;;14.20;45.50;;;;;;5011814;28;20500;-70
2021/05/29 07:26:20;;;;;;;4.20;0.85;;;14.20;46.10;;;;;;5011992;28;20026;-70
2021/05/29 07:28:46;;;;;;;1.52;0.60;;;14.30;46.10;;;;;;5011735;28;20029;-70
2021/05/29 07:31:12;;;;;;;1.42;0.68;;;14.30;45.80;;;;;;5011994;28;20433;-70
2021/05/29 07:33:38;;;;;;;1.00;0.50;;;14.10;45.60;;;;;;5012137;28;20022;-70
2021/05/29 07:36:04;;;;;;;0.90;0.50;;;14.10;45.40;;;;;;5011647;28;20064;-69
2021/05/29 07:38:30;;;;;;;1.10;0.40;;;14.30;45.90;;;;;;5012166;28;20026;-70
2021/05/29 07:40:56;;;;;;;3.92;0.50;;;14.40;45.70;;;;;;5011736;28;20113;-70
2021/05/29 07:43:22;;;;;;;0.82;0.40;;;14.20;45.90;;;;;;5012078;28;20109;-70
2021/05/29 07:45:49;;;;;;;2.22;0.47;;;14.10;45.80;;;;;;5012081;28;20018;-70
2021/05/29 07:48:15;;;;;;;2.35;0.70;;;14.00;46.20;;;;;;5011779;28;20022;-70
2021/05/29 07:53:28;;;;;;;2.13;0.60;;;14.00;47.10;;;;;;5010040;28;20393;-70
2021/05/29 07:55:54;;;;;;;0.70;0.40;;;13.70;46.80;;;;;;5011448;28;20454;-69
2021/05/29 07:58:20;;;;;;;21.65;1.50;;;13.40;47.00;;;;;;5011887;28;20064;-69
2021/05/29 08:00:50;;;;;;;4.32;0.75;;;13.10;47.70;;;;;;5011499;28;20054;-69
2021/05/29 08:03:21;;;;;;;1.52;0.50;;;13.00;48.90;;;;;;5011800;28;20069;-69
2021/05/29 08:05:47;;;;;;;;;;;13.00;48.30;;;;;;5013135;28;20103;-69
2021/05/29 08:08:13;;;;;;;2.95;0.73;;;13.00;48.60;;;;;;5015288;28;19905;-69
2021/05/29 08:10:40;;;;;;;2.58;0.80;;;13.00;48.50;;;;;;5015546;28;20107;-69
2021/05/29 08:13:05;;;;;;;3.65;0.80;;;12.90;48.60;;;;;;5015062;28;20028;-69
2021/05/29 08:15:31;;;;;;;2.25;0.55;;;12.80;48.50;;;;;;5015044;28;20030;-69
2021/05/29 08:17:57;;;;;;;1.67;0.80;;;12.60;48.80;;;;;;5014953;28;20033;-69
2021/05/29 08:20:23;;;;;;;1.17;0.60;;;12.60;49.00;;;;;;5015016;28;20049;-69
2021/05/29 08:22:48;;;;;;;2.28;0.77;;;12.50;49.10;;;;;;5015163;28;20038;-69
2021/05/29 08:25:16;;;;;;;2.25;0.90;;;12.60;49.50;;;;;;5014899;28;20488;-69
2021/05/29 08:27:43;;;;;;;2.20;0.63;;;12.70;49.10;;;;;;5015230;28;20030;-69
2021/05/29 08:30:10;;;;;;;1.98;0.50;;;12.90;48.70;;;;;;5014807;28;20113;-69
2021/05/29 08:32:36;;;;;;;1.05;0.50;;;13.00;48.70;;;;;;5014821;28;20026;-69
2021/05/29 08:35:04;;;;;;;2.22;0.80;;;13.00;48.40;;;;;;5014643;28;20093;-69
2021/05/29 08:37:30;;;;;;;2.55;0.60;;;13.00;48.90;;;;;;5014533;28;20072;-69
2021/05/29 08:39:56;;;;;;;3.45;0.60;;;12.80;48.30;;;;;;5014570;28;20532;-69
2021/05/29 08:42:22;;;;;;;2.60;0.75;;;12.70;49.20;;;;;;5014946;28;20120;-69
2021/05/29 08:44:48;;;;;;;9.07;1.08;;;12.40;48.80;;;;;;5014588;28;20388;-69
2021/05/29 08:47:14;;;;;;;2.13;0.50;;;12.30;49.40;;;;;;5014808;28;20022;-69
2021/05/29 08:49:40;;;;;;;13.15;0.98;;;12.10;49.40;;;;;;5014462;28;20025;-69
2021/05/29 08:52:07;;;;;;;2.85;0.70;;;11.90;49.70;;;;;;5014479;28;20022;-69
2021/05/29 08:54:33;;;;;;;6.28;0.70;;;11.70;49.90;;;;;;5014408;28;20018;-69
2021/05/29 08:56:59;;;;;;;2.20;0.60;;;11.60;50.10;;;;;;4996724;28;20049;-69
2021/05/29 08:59:25;;;;;;;1.25;0.60;;;11.50;50.80;;;;;;5014395;28;20025;-69
2021/05/29 09:01:54;;;;;;;1.15;0.50;;;11.30;50.60;;;;;;5014300;28;20037;-69
2021/05/29 09:04:20;;;;;;;10.65;1.33;;;11.30;51.20;;;;;;5014298;28;20032;-69
2021/05/29 09:06:46;;;;;;;2.20;0.70;;;11.40;51.50;;;;;;5014248;28;20105;-69
2021/05/29 09:09:14;;;;;;;4.85;1.30;;;11.40;51.20;;;;;;5014206;28;20107;-69
2021/05/29 09:11:50;;;;;;;1.33;0.55;;;11.40;51.50;;;;;;5014548;28;20134;-69
2021/05/29 09:14:29;;;;;;;1.65;0.63;;;11.30;52.30;;;;;;5014086;28;20101;-69
2021/05/29 09:17:21;;;;;;;2.95;0.95;;;11.30;51.90;;;;;;5013223;28;20517;-69
2021/05/29 09:19:56;;;;;;;2.45;0.50;;;11.20;52.00;;;;;;5013849;28;20037;-69
2021/05/29 09:22:24;;;;;;;2.30;0.70;;;11.30;52.30;;;;;;5014229;28;20037;-69
2021/05/29 09:25:11;;;;;;;2.83;0.60;;;11.50;52.20;;;;;;5013864;28;20033;-69
2021/05/29 09:27:50;;;;;;;1.45;0.52;;;11.60;52.00;;;;;;5013922;28;20037;-69
2021/05/29 09:30:34;;;;;;;4.05;0.70;;;11.60;51.80;;;;;;5013766;28;20076;-69
2021/05/29 09:33:15;;;;;;;13.20;1.00;;;11.50;52.00;;;;;;5013715;28;20022;-69
2021/05/29 09:35:44;;;;;;;2.63;0.80;;;11.60;51.90;;;;;;4995914;28;20026;-69
2021/05/29 09:38:11;;;;;;;4.18;0.90;;;11.50;52.20;;;;;;5013388;28;20073;-69
2021/05/29 09:40:36;;;;;;;4.50;0.70;;;11.60;52.60;;;;;;5013496;28;20072;-69
2021/05/29 09:43:07;;;;;;;3.65;0.80;;;11.70;53.00;;;;;;5013580;28;20037;-69
2021/05/29 09:45:34;;;;;;;16.35;1.40;;;11.80;51.80;;;;;;5013416;28;20049;-69
2021/05/29 09:48:17;;;;;;;28.73;1.48;;;11.80;52.10;;;;;;5013318;28;20486;-69
2021/05/29 09:50:58;;;;;;;5.70;0.77;;;11.90;51.90;;;;;;5013638;28;20026;-69
2021/05/29 09:53:29;;;;;;;4.68;1.00;;;11.60;52.20;;;;;;5013442;28;20380;-69
2021/05/29 09:55:55;;;;;;;3.30;1.05;;;11.70;52.80;;;;;;5013216;28;20026;-69
2021/05/29 09:58:26;;;;;;;3.55;0.90;;;11.70;52.50;;;;;;5013656;28;20030;-69
2021/05/29 10:00:51;;;;;;;2.25;1.00;;;11.70;52.70;;;;;;5013124;28;20018;-69
2021/05/29 10:03:17;;;;;;;3.30;1.10;;;11.60;52.50;;;;;;5013375;28;20096;-69
2021/05/29 10:05:47;;;;;;;9.15;1.00;;;11.70;52.60;;;;;;5013050;28;20022;-69
2021/05/29 10:08:14;;;;;;;;;;;11.70;52.70;;;;;;5013850;28;20108;-69
2021/05/29 10:10:40;;;;;;;3.22;0.90;;;11.60;52.90;;;;;;5012920;28;19913;-69
2021/05/29 10:13:06;;;;;;;2.15;0.85;;;11.70;52.80;;;;;;5013422;28;20026;-69
2021/05/29 10:15:31;;;;;;;6.15;1.40;;;11.70;52.80;;;;;;5012869;28;20026;-69
2021/05/29 10:18:00;;;;;;;3.08;1.27;;;11.60;53.00;;;;;;5012755;28;20041;-69
2021/05/29 10:20:26;;;;;;;12.55;1.60;;;11.50;52.70;;;;;;5012812;28;20018;-69
2021/05/29 10:22:52;;;;;;;3.63;0.90;;;11.40;53.10;;;;;;5012617;28;20512;-69
2021/05/29 10:25:20;;;;;;;4.43;1.20;;;11.30;53.40;;;;;;5012949;28;20041;-69
2021/05/29 10:27:52;;;;;;;8.60;1.10;;;11.50;53.80;;;;;;5013095;28;20030;-69
2021/05/29 10:30:23;;;;;;;3.70;0.98;;;11.50;53.50;;;;;;5012620;28;20033;-69
2021/05/29 10:33:11;;;;;;;2.67;0.93;;;11.60;53.20;;;;;;5012952;28;20037;-69
2021/05/29 10:35:38;;;;;;;2.90;1.02;;;11.60;53.00;;;;;;5012461;28;20473;-69
2021/05/29 10:38:04;;;;;;;3.03;0.70;;;11.50;52.90;;;;;;5012401;28;20110;-69
2021/05/29 10:40:34;;;;;;;8.15;1.02;;;11.40;53.20;;;;;;5012728;28;20104;-69
2021/05/29 10:43:15;;;;;;;1.92;0.70;;;11.30;53.40;;;;;;5012354;28;20073;-69
2021/05/29 10:45:50;;;;;;;6.60;0.98;;;11.30;53.70;;;;;;5012350;28;20034;-69
2021/05/29 10:48:21;;;;;;;2.95;1.10;;;11.40;53.70;;;;;;5012528;28;20022;-69
2021/05/29 10:53:49;;;;;;;2.25;0.60;;;11.40;53.60;;;;;;5012507;28;20406;-69
2021/05/29 10:56:15;;;;;;;2.22;0.60;;;11.40;54.00;;;;;;5012148;28;20482;-69
2021/05/29 10:59:18;;;;;;;1.58;0.60;;;11.40;53.80;;;;;;5012522;28;20036;-69
2021/05/29 11:01:50;;;;;;;4.93;0.82;;;11.50;53.60;;;;;;5012340;28;20117;-69
2021/05/29 11:04:15;;;;;;;4.90;1.13;;;11.50;53.60;;;;;;5012539;28;20022;-69
2021/05/29 11:06:50;;;;;;;2.15;0.95;;;11.60;54.20;;;;;;5012138;28;20389;-69
2021/05/29 11:09:18;;;;;;;7.93;1.00;;;11.60;53.40;;;;;;5011918;28;20033;-69
2021/05/29 11:14:22;;;;;;;2.25;0.70;;;11.70;53.50;;;;;;5012077;28;20080;-69
2021/05/29 11:16:52;;;;;;;6.22;1.15;;;11.70;53.30;;;;;;5012331;28;20429;-69
2021/05/29 11:19:21;;;;;;;3.75;0.70;;;11.70;53.40;;;;;;5011980;28;20049;-69
2021/05/29 11:22:09;;;;;;;1.58;0.60;;;11.80;53.10;;;;;;5012242;28;20057;-69
2021/05/29 11:24:41;;;;;;;4.40;0.77;;;11.80;53.10;;;;;;5011896;28;20478;-69
2021/05/29 11:27:34;;;;;;;5.03;0.93;;;11.80;53.00;;;;;;5011913;28;20036;-69
2021/05/29 11:30:08;;;;;;;2.80;0.80;;;12.00;53.40;;;;;;5008611;28;20088;-69
2021/05/29 11:32:56;;;;;;;9.23;1.63;;;12.10;53.60;;;;;;5011886;28;20030;-69
2021/05/29 11:35:45;;;;;;;3.20;0.77;;;12.20;53.10;;;;;;5011673;28;20022;-69
2021/05/29 11:38:40;;;;;;;3.80;0.90;;;12.20;53.40;;;;;;5011640;28;20069;-69
2021/05/29 11:41:16;;;;;;;3.22;0.95;;;12.20;53.90;;;;;;5011457;28;20080;-69
2021/05/29 11:43:48;;;;;;;2.55;0.93;;;12.30;53.30;;;;;;5016049;28;20025;-69
2021/05/29 11:46:18;;;;;;;3.40;0.80;;;12.30;53.60;;;;;;5015598;28;20045;-69
2021/05/29 11:48:55;;;;;;;2.65;0.90;;;12.30;53.50;;;;;;5015798;28;20018;-69
2021/05/29 11:51:21;;;;;;;4.40;0.70;;;12.30;53.40;;;;;;5015578;28;20026;-69
2021/05/29 11:53:51;;;;;;;1.63;0.90;;;12.30;53.20;;;;;;5015635;28;20037;-69
2021/05/29 11:56:30;;;;;;;1.92;0.90;;;12.30;53.10;;;;;;4997842;28;20028;-69
2021/05/29 11:58:56;;;;;;;3.25;1.02;;;12.30;52.50;;;;;;5015247;28;20160;-69
2021/05/29 12:01:32;;;;;;;5.18;1.00;;;12.40;53.30;;;;;;5015990;28;20053;-69
2021/05/29 12:04:00;;;;;;;1.75;0.88;;;12.50;53.10;;;;;;5015395;28;20477;-69
2021/05/29 12:06:54;;;;;;;1.52;0.93;;;12.40;53.40;;;;;;5015412;28;20041;-69
2021/05/29 12:09:28;;;;;;;52.80;3.25;;;12.50;53.30;;;;;;5015577;28;20370;-69
2021/05/29 12:11:55;;;;;;;2.92;1.00;;;12.60;53.30;;;;;;5015503;28;20076;-69
2021/05/29 12:14:31;;;;;;;6.30;1.10;;;12.60;52.90;;;;;;5015386;28;20470;-69
2021/05/29 12:17:01;;;;;;;2.33;0.70;;;12.70;52.90;;;;;;5015334;28;20033;-69
2021/05/29 12:19:44;;;;;;;7.05;1.40;;;12.70;53.20;;;;;;5015203;28;20029;-69
2021/05/29 12:22:17;;;;;;;3.58;1.10;;;12.70;53.30;;;;;;5015063;28;20038;-69
2021/05/29 12:24:49;;;;;;;2.30;1.10;;;12.70;53.30;;;;;;5015200;28;20072;-69
2021/05/29 12:27:17;;;;;;;4.68;1.10;;;12.70;52.90;;;;;;5014980;28;20041;-69
2021/05/29 12:29:44;;;;;;;2.75;0.88;;;12.50;53.30;;;;;;5014826;28;20057;-69
2021/05/29 12:32:11;;;;;;;3.28;1.08;;;12.40;53.40;;;;;;5014844;28;20477;-69
2021/05/29 12:34:49;;;;;;;3.60;1.20;;;12.40;53.50;;;;;;5015053;28;20025;-69
2021/05/29 12:37:16;;;;;;;3.78;1.05;;;12.30;53.60;;;;;;5014581;28;20414;-69
2021/05/29 12:40:19;;;;;;;7.70;1.05;;;12.30;53.80;;;;;;4997096;28;20028;-69
2021/05/29 12:42:47;;;;;;;4.28;0.80;;;12.40;53.90;;;;;;4934820;29;20363;-69
2021/05/29 12:45:25;;;;;;;10.32;1.60;;;12.30;53.60;;;;;;4982218;28;20371;-69
2021/05/29 12:48:04;;;;;;;3.15;0.93;;;12.30;54.00;;;;;;5014706;28;20030;-69
2021/05/29 12:50:31;;;;;;;33.95;1.73;;;12.40;53.40;;;;;;5014550;28;20029;-69
2021/05/29 12:53:17;;;;;;;2.28;0.73;;;12.40;53.20;;;;;;5012961;28;20513;-69
2021/05/29 12:55:45;;;;;;;4.05;0.77;;;12.40;53.80;;;;;;5014356;28;20053;-69
2021/05/29 12:58:23;;;;;;;7.68;0.90;;;12.60;54.20;;;;;;5014192;28;20079;-69
2021/05/29 13:12:29;;;;;;;3.28;0.90;;;12.80;53.70;;;;;;5014414;28;20072;-69
2021/05/29 13:14:55;;;;;;;4.55;1.27;;;12.70;53.20;;;;;;5010364;28;20042;-69
2021/05/29 13:17:29;;;;;;;4.28;1.00;;;12.70;53.40;;;;;;5013933;28;20034;-69
2021/05/29 13:20:04;;;;;;;6.20;1.23;;;12.70;53.70;;;;;;5013996;28;20102;-69
2021/05/29 13:22:37;;;;;;;31.83;2.03;;;12.80;53.70;;;;;;5014257;28;20125;-69
2021/05/29 13:25:06;;;;;;;3.83;1.42;;;12.80;53.60;;;;;;4980570;28;20060;-69
2021/05/29 13:27:32;;;;;;;7.38;1.33;;;12.80;53.80;;;;;;5013954;28;20053;-69
2021/05/29 13:30:15;;;;;;;6.35;1.42;;;12.80;54.10;;;;;;5013852;28;20050;-69